sensor_id;sensor_type;location;lat;lon;timestamp;P1;durP1;ratioP1;P2;durP2;ratioP2
27925;SDS011;15267;47.838;12.128;2022-11-03T00:00:04;19.55;;;12.32;;
27925;SDS011;15267;47.838;12.128;2022-11-03T00:02:30;18.77;;;11.70;;
27925;SDS011;15267;47.838;12.128;2022-11-03T00:04:56;18.27;;;12.65;;
27925;SDS011;15267;47.838;12.128;2022-11-03T00:07:42;153.80;;;16.45;;
27925;SDS011;15267;47.838;12.128;2022-11-03T00:10:08;22.10;;;12.10;;
27925;SDS011;15267;47.838;12.128;2022-11-03T00:12:34;18.30;;;10.70;;
27925;SDS011;15267;47.838;12.128;2022-11-03T00:15:00;14.32;;;10.55;;
27925;SDS011;15267;47.838;12.128;2022-11-03T00:17:26;14.40;;;10.60;;
27925;SDS011;15267;47.838;12.128;2022-11-03T00:19:51;28.00;;;10.15;;
27925;SDS011;15267;47.838;12.128;2022-11-03T00:22:17;14.40;;;10.32;;
27925;SDS011;15267;47.838;12.128;2022-11-03T00:24:43;24.15;;;10.38;;
27925;SDS011;15267;47.838;12.128;2022-11-03T00:27:09;16.42;;;9.77;;
27925;SDS011;15267;47.838;12.128;2022-11-03T00:29:35;13.18;;;9.55;;
27925;SDS011;15267;47.838;12.128;2022-11-03T00:32:01;113.43;;;12.82;;
27925;SDS011;15267;47.838;12.128;2022-11-03T00:34:27;50.85;;;11.98;;
27925;SDS011;15267;47.838;12.128;2022-11-03T00:36:53;88.80;;;11.40;;
27925;SDS011;15267;47.838;12.128;2022-11-03T00:39:19;15.25;;;10.38;;
27925;SDS011;15267;47.838;12.128;2022-11-03T00:41:45;37.38;;;11.63;;
27925;SDS011;15267;47.838;12.128;2022-11-03T00:44:11;99.63;;;11.73;;
27925;SDS011;15267;47.838;12.128;2022-11-03T00:46:37;36.10;;;10.32;;
27925;SDS011;15267;47.838;12.128;2022-11-03T00:49:03;15.70;;;9.60;;
27925;SDS011;15267;47.838;12.128;2022-11-03T00:51:29;13.15;;;9.32;;
27925;SDS011;15267;47.838;12.128;2022-11-03T00:53:56;12.07;;;8.95;;
27925;SDS011;15267;47.838;12.128;2022-11-03T00:56:23;12.57;;;9.55;;
27925;SDS011;15267;47.838;12.128;2022-11-03T00:58:50;13.20;;;9.20;;
27925;SDS011;15267;47.838;12.128;2022-11-03T01:01:17;12.98;;;9.25;;
27925;SDS011;15267;47.838;12.128;2022-11-03T01:03:44;12.07;;;8.52;;
27925;SDS011;15267;47.838;12.128;2022-11-03T01:06:34;12.63;;;8.30;;
27925;SDS011;15267;47.838;12.128;2022-11-03T01:09:39;11.13;;;7.82;;
27925;SDS011;15267;47.838;12.128;2022-11-03T01:12:11;13.00;;;8.35;;
27925;SDS011;15267;47.838;12.128;2022-11-03T01:14:38;11.38;;;8.77;;
27925;SDS011;15267;47.838;12.128;2022-11-03T01:17:06;10.30;;;7.72;;
27925;SDS011;15267;47.838;12.128;2022-11-03T01:19:32;10.70;;;8.32;;
27925;SDS011;15267;47.838;12.128;2022-11-03T01:21:58;10.82;;;8.10;;
27925;SDS011;15267;47.838;12.128;2022-11-03T01:24:24;11.75;;;8.02;;
27925;SDS011;15267;47.838;12.128;2022-11-03T01:26:50;11.38;;;8.05;;
27925;SDS011;15267;47.838;12.128;2022-11-03T01:29:16;13.30;;;8.00;;
27925;SDS011;15267;47.838;12.128;2022-11-03T01:31:42;13.52;;;8.65;;
27925;SDS011;15267;47.838;12.128;2022-11-03T01:34:11;16.17;;;8.30;;
27925;SDS011;15267;47.838;12.128;2022-11-03T01:36:38;15.95;;;9.40;;
27925;SDS011;15267;47.838;12.128;2022-11-03T01:39:04;16.25;;;8.70;;
27925;SDS011;15267;47.838;12.128;2022-11-03T01:41:30;12.23;;;8.77;;
27925;SDS011;15267;47.838;12.128;2022-11-03T01:46:31;12.77;;;8.88;;
27925;SDS011;15267;47.838;12.128;2022-11-03T01:49:00;12.73;;;9.07;;
27925;SDS011;15267;47.838;12.128;2022-11-03T01:51:28;13.32;;;9.13;;
27925;SDS011;15267;47.838;12.128;2022-11-03T01:53:55;11.20;;;8.82;;
27925;SDS011;15267;47.838;12.128;2022-11-03T01:56:24;11.73;;;9.52;;
27925;SDS011;15267;47.838;12.128;2022-11-03T01:58:52;12.13;;;8.98;;
27925;SDS011;15267;47.838;12.128;2022-11-03T02:01:19;11.82;;;8.52;;
27925;SDS011;15267;47.838;12.128;2022-11-03T02:03:50;11.32;;;8.73;;
27925;SDS011;15267;47.838;12.128;2022-11-03T02:06:17;13.90;;;8.98;;
27925;SDS011;15267;47.838;12.128;2022-11-03T02:08:45;29.98;;;10.30;;
27925;SDS011;15267;47.838;12.128;2022-11-03T02:11:13;11.18;;;8.80;;
27925;SDS011;15267;47.838;12.128;2022-11-03T02:13:58;12.32;;;9.55;;
27925;SDS011;15267;47.838;12.128;2022-11-03T02:16:24;10.57;;;8.73;;
27925;SDS011;15267;47.838;12.128;2022-11-03T02:18:51;10.20;;;8.80;;
27925;SDS011;15267;47.838;12.128;2022-11-03T02:21:33;10.93;;;8.18;;
27925;SDS011;15267;47.838;12.128;2022-11-03T02:24:22;8.57;;;7.68;;
27925;SDS011;15267;47.838;12.128;2022-11-03T02:26:52;8.95;;;7.13;;
27925;SDS011;15267;47.838;12.128;2022-11-03T02:29:19;9.82;;;7.82;;
27925;SDS011;15267;47.838;12.128;2022-11-03T02:31:47;8.60;;;7.35;;
27925;SDS011;15267;47.838;12.128;2022-11-03T02:34:22;9.50;;;8.05;;
27925;SDS011;15267;47.838;12.128;2022-11-03T02:36:52;9.50;;;7.68;;
27925;SDS011;15267;47.838;12.128;2022-11-03T02:39:24;9.10;;;7.78;;
27925;SDS011;15267;47.838;12.128;2022-11-03T02:41:52;9.48;;;8.45;;
27925;SDS011;15267;47.838;12.128;2022-11-03T02:44:19;117.63;;;11.50;;
27925;SDS011;15267;47.838;12.128;2022-11-03T02:46:46;22.90;;;8.30;;
27925;SDS011;15267;47.838;12.128;2022-11-03T02:49:13;9.48;;;8.10;;
27925;SDS011;15267;47.838;12.128;2022-11-03T02:51:39;11.63;;;8.63;;
27925;SDS011;15267;47.838;12.128;2022-11-03T02:56:36;75.25;;;10.85;;
27925;SDS011;15267;47.838;12.128;2022-11-03T02:59:04;88.00;;;11.65;;
27925;SDS011;15267;47.838;12.128;2022-11-03T03:01:38;270.55;;;15.45;;
27925;SDS011;15267;47.838;12.128;2022-11-03T03:04:17;171.77;;;13.38;;
27925;SDS011;15267;47.838;12.128;2022-11-03T03:06:47;91.97;;;11.35;;
27925;SDS011;15267;47.838;12.128;2022-11-03T03:09:19;73.85;;;9.88;;
27925;SDS011;15267;47.838;12.128;2022-11-03T03:11:46;13.15;;;7.68;;
27925;SDS011;15267;47.838;12.128;2022-11-03T03:14:14;52.50;;;8.27;;
27925;SDS011;15267;47.838;12.128;2022-11-03T03:16:53;19.55;;;7.28;;
27925;SDS011;15267;47.838;12.128;2022-11-03T03:22:11;36.17;;;8.95;;
27925;SDS011;15267;47.838;12.128;2022-11-03T03:24:42;96.78;;;11.02;;
27925;SDS011;15267;47.838;12.128;2022-11-03T03:27:10;31.50;;;9.73;;
27925;SDS011;15267;47.838;12.128;2022-11-03T03:29:59;82.32;;;11.07;;
27925;SDS011;15267;47.838;12.128;2022-11-03T03:32:24;142.20;;;12.65;;
27925;SDS011;15267;47.838;12.128;2022-11-03T03:34:51;40.05;;;10.20;;
27925;SDS011;15267;47.838;12.128;2022-11-03T03:37:18;10.80;;;8.52;;
27925;SDS011;15267;47.838;12.128;2022-11-03T03:39:46;122.00;;;11.75;;
27925;SDS011;15267;47.838;12.128;2022-11-03T03:42:13;10.07;;;8.55;;
27925;SDS011;15267;47.838;12.128;2022-11-03T03:44:39;20.23;;;9.80;;
27925;SDS011;15267;47.838;12.128;2022-11-03T03:47:09;77.22;;;11.82;;
27925;SDS011;15267;47.838;12.128;2022-11-03T03:49:35;10.18;;;7.90;;
27925;SDS011;15267;47.838;12.128;2022-11-03T03:52:01;55.65;;;10.27;;
27925;SDS011;15267;47.838;12.128;2022-11-03T03:54:28;8.68;;;7.43;;
27925;SDS011;15267;47.838;12.128;2022-11-03T03:57:01;10.25;;;7.65;;
27925;SDS011;15267;47.838;12.128;2022-11-03T03:59:27;9.13;;;7.28;;
27925;SDS011;15267;47.838;12.128;2022-11-03T04:01:53;10.15;;;7.93;;
27925;SDS011;15267;47.838;12.128;2022-11-03T04:04:19;10.20;;;7.93;;
27925;SDS011;15267;47.838;12.128;2022-11-03T04:06:45;10.18;;;8.25;;
27925;SDS011;15267;47.838;12.128;2022-11-03T04:09:11;23.10;;;9.52;;
27925;SDS011;15267;47.838;12.128;2022-11-03T04:11:38;8.48;;;7.55;;
27925;SDS011;15267;47.838;12.128;2022-11-03T04:14:22;7.72;;;6.85;;
27925;SDS011;15267;47.838;12.128;2022-11-03T04:17:12;9.15;;;7.03;;
27925;SDS011;15267;47.838;12.128;2022-11-03T04:19:59;9.85;;;7.32;;
27925;SDS011;15267;47.838;12.128;2022-11-03T04:22:44;7.88;;;7.00;;
27925;SDS011;15267;47.838;12.128;2022-11-03T04:25:10;9.00;;;7.28;;
27925;SDS011;15267;47.838;12.128;2022-11-03T04:27:36;8.10;;;7.30;;
27925;SDS011;15267;47.838;12.128;2022-11-03T04:32:34;13.20;;;8.05;;
27925;SDS011;15267;47.838;12.128;2022-11-03T04:35:02;9.63;;;7.35;;
27925;SDS011;15267;47.838;12.128;2022-11-03T04:37:32;8.90;;;7.13;;
27925;SDS011;15267;47.838;12.128;2022-11-03T04:39:58;11.98;;;7.72;;
27925;SDS011;15267;47.838;12.128;2022-11-03T04:42:25;11.18;;;7.90;;
27925;SDS011;15267;47.838;12.128;2022-11-03T04:44:51;10.30;;;7.60;;
27925;SDS011;15267;47.838;12.128;2022-11-03T04:47:17;12.32;;;6.97;;
27925;SDS011;15267;47.838;12.128;2022-11-03T04:49:43;32.38;;;9.00;;
27925;SDS011;15267;47.838;12.128;2022-11-03T04:52:16;12.13;;;8.57;;
27925;SDS011;15267;47.838;12.128;2022-11-03T04:54:42;11.10;;;8.05;;
27925;SDS011;15267;47.838;12.128;2022-11-03T04:57:12;64.20;;;10.93;;
27925;SDS011;15267;47.838;12.128;2022-11-03T04:59:39;21.90;;;9.65;;
27925;SDS011;15267;47.838;12.128;2022-11-03T05:02:09;22.88;;;9.77;;
27925;SDS011;15267;47.838;12.128;2022-11-03T05:04:36;18.63;;;9.35;;
27925;SDS011;15267;47.838;12.128;2022-11-03T05:07:04;15.38;;;9.63;;
27925;SDS011;15267;47.838;12.128;2022-11-03T05:09:34;19.42;;;9.88;;
27925;SDS011;15267;47.838;12.128;2022-11-03T05:12:00;22.70;;;9.20;;
27925;SDS011;15267;47.838;12.128;2022-11-03T05:14:27;12.23;;;9.52;;
27925;SDS011;15267;47.838;12.128;2022-11-03T05:16:56;15.73;;;10.00;;
27925;SDS011;15267;47.838;12.128;2022-11-03T05:19:27;14.68;;;9.40;;
27925;SDS011;15267;47.838;12.128;2022-11-03T05:21:53;12.32;;;9.85;;
27925;SDS011;15267;47.838;12.128;2022-11-03T05:24:21;48.20;;;10.20;;
27925;SDS011;15267;47.838;12.128;2022-11-03T05:26:51;88.72;;;13.68;;
27925;SDS011;15267;47.838;12.128;2022-11-03T05:29:18;12.45;;;9.95;;
27925;SDS011;15267;47.838;12.128;2022-11-03T05:31:45;11.07;;;8.05;;
27925;SDS011;15267;47.838;12.128;2022-11-03T05:37:01;17.48;;;11.00;;
27925;SDS011;15267;47.838;12.128;2022-11-03T05:39:39;20.13;;;10.82;;
27925;SDS011;15267;47.838;12.128;2022-11-03T05:42:15;15.43;;;10.65;;
27925;SDS011;15267;47.838;12.128;2022-11-03T05:44:44;18.83;;;9.88;;
27925;SDS011;15267;47.838;12.128;2022-11-03T05:47:17;17.17;;;12.00;;
27925;SDS011;15267;47.838;12.128;2022-11-03T05:49:44;16.48;;;11.20;;
27925;SDS011;15267;47.838;12.128;2022-11-03T05:52:12;31.52;;;22.77;;
27925;SDS011;15267;47.838;12.128;2022-11-03T05:54:39;64.43;;;17.88;;
27925;SDS011;15267;47.838;12.128;2022-11-03T05:57:09;58.80;;;13.18;;
27925;SDS011;15267;47.838;12.128;2022-11-03T05:59:36;17.58;;;11.05;;
27925;SDS011;15267;47.838;12.128;2022-11-03T06:02:02;22.10;;;11.57;;
27925;SDS011;15267;47.838;12.128;2022-11-03T06:04:31;10.88;;;6.57;;
27925;SDS011;15267;47.838;12.128;2022-11-03T06:06:59;12.18;;;8.25;;
27925;SDS011;15267;47.838;12.128;2022-11-03T06:09:26;11.77;;;7.57;;
27925;SDS011;15267;47.838;12.128;2022-11-03T06:11:56;13.85;;;7.82;;
27925;SDS011;15267;47.838;12.128;2022-11-03T06:14:24;12.90;;;7.63;;
27925;SDS011;15267;47.838;12.128;2022-11-03T06:17:03;11.13;;;8.07;;
27925;SDS011;15267;47.838;12.128;2022-11-03T06:19:34;11.30;;;7.50;;
27925;SDS011;15267;47.838;12.128;2022-11-03T06:22:03;30.65;;;10.35;;
27925;SDS011;15267;47.838;12.128;2022-11-03T06:24:31;32.63;;;11.50;;
27925;SDS011;15267;47.838;12.128;2022-11-03T06:26:58;18.15;;;10.45;;
27925;SDS011;15267;47.838;12.128;2022-11-03T06:29:24;20.27;;;11.02;;
27925;SDS011;15267;47.838;12.128;2022-11-03T06:31:51;37.33;;;12.18;;
27925;SDS011;15267;47.838;12.128;2022-11-03T06:36:44;54.13;;;12.00;;
27925;SDS011;15267;47.838;12.128;2022-11-03T06:39:18;48.30;;;13.07;;
27925;SDS011;15267;47.838;12.128;2022-11-03T06:41:45;28.00;;;11.57;;
27925;SDS011;15267;47.838;12.128;2022-11-03T06:44:18;120.35;;;13.90;;
27925;SDS011;15267;47.838;12.128;2022-11-03T06:46:44;33.00;;;12.10;;
27925;SDS011;15267;47.838;12.128;2022-11-03T06:49:23;37.85;;;10.90;;
27925;SDS011;15267;47.838;12.128;2022-11-03T06:51:49;69.95;;;10.95;;
27925;SDS011;15267;47.838;12.128;2022-11-03T06:54:15;90.30;;;11.23;;
27925;SDS011;15267;47.838;12.128;2022-11-03T06:56:42;37.50;;;10.40;;
27925;SDS011;15267;47.838;12.128;2022-11-03T06:59:08;53.75;;;10.85;;
27925;SDS011;15267;47.838;12.128;2022-11-03T07:01:35;45.60;;;9.88;;
27925;SDS011;15267;47.838;12.128;2022-11-03T07:04:02;22.42;;;10.30;;
27925;SDS011;15267;47.838;12.128;2022-11-03T07:06:29;44.53;;;10.07;;
27925;SDS011;15267;47.838;12.128;2022-11-03T07:08:59;19.35;;;10.88;;
27925;SDS011;15267;47.838;12.128;2022-11-03T07:11:29;18.95;;;11.45;;
27925;SDS011;15267;47.838;12.128;2022-11-03T07:14:18;29.25;;;12.35;;
27925;SDS011;15267;47.838;12.128;2022-11-03T07:16:44;13.32;;;10.27;;
27925;SDS011;15267;47.838;12.128;2022-11-03T07:19:12;20.48;;;11.43;;
27925;SDS011;15267;47.838;12.128;2022-11-03T07:21:40;15.32;;;10.70;;
27925;SDS011;15267;47.838;12.128;2022-11-03T07:24:20;18.10;;;11.30;;
27925;SDS011;15267;47.838;12.128;2022-11-03T07:26:47;13.35;;;10.05;;
27925;SDS011;15267;47.838;12.128;2022-11-03T07:29:20;14.45;;;10.30;;
27925;SDS011;15267;47.838;12.128;2022-11-03T07:31:47;13.55;;;9.68;;
27925;SDS011;15267;47.838;12.128;2022-11-03T07:34:14;19.65;;;11.10;;
27925;SDS011;15267;47.838;12.128;2022-11-03T07:36:44;24.70;;;11.70;;
27925;SDS011;15267;47.838;12.128;2022-11-03T07:39:11;57.65;;;12.73;;
27925;SDS011;15267;47.838;12.128;2022-11-03T07:41:39;20.35;;;12.07;;
27925;SDS011;15267;47.838;12.128;2022-11-03T07:44:07;15.57;;;10.98;;
27925;SDS011;15267;47.838;12.128;2022-11-03T07:46:38;18.08;;;11.98;;
27925;SDS011;15267;47.838;12.128;2022-11-03T07:49:04;16.30;;;11.60;;
27925;SDS011;15267;47.838;12.128;2022-11-03T07:51:35;16.35;;;11.88;;
27925;SDS011;15267;47.838;12.128;2022-11-03T07:54:02;14.80;;;11.98;;
27925;SDS011;15267;47.838;12.128;2022-11-03T07:56:33;12.75;;;10.15;;
27925;SDS011;15267;47.838;12.128;2022-11-03T07:59:03;14.73;;;9.88;;
27925;SDS011;15267;47.838;12.128;2022-11-03T08:01:36;14.65;;;12.30;;
27925;SDS011;15267;47.838;12.128;2022-11-03T08:04:05;13.35;;;10.85;;
27925;SDS011;15267;47.838;12.128;2022-11-03T08:06:32;17.05;;;10.40;;
27925;SDS011;15267;47.838;12.128;2022-11-03T08:08:58;19.35;;;14.15;;
27925;SDS011;15267;47.838;12.128;2022-11-03T08:11:24;19.83;;;12.75;;
27925;SDS011;15267;47.838;12.128;2022-11-03T08:13:50;15.48;;;11.40;;
27925;SDS011;15267;47.838;12.128;2022-11-03T08:16:17;17.38;;;12.60;;
27925;SDS011;15267;47.838;12.128;2022-11-03T08:18:43;18.33;;;13.55;;
27925;SDS011;15267;47.838;12.128;2022-11-03T08:21:09;17.17;;;12.27;;
27925;SDS011;15267;47.838;12.128;2022-11-03T08:23:35;13.18;;;9.63;;
27925;SDS011;15267;47.838;12.128;2022-11-03T08:26:01;14.93;;;10.45;;
27925;SDS011;15267;47.838;12.128;2022-11-03T08:28:28;12.13;;;9.52;;
27925;SDS011;15267;47.838;12.128;2022-11-03T08:30:54;14.38;;;9.43;;
27925;SDS011;15267;47.838;12.128;2022-11-03T08:33:25;14.30;;;9.27;;
27925;SDS011;15267;47.838;12.128;2022-11-03T08:35:51;15.02;;;9.80;;
27925;SDS011;15267;47.838;12.128;2022-11-03T08:38:17;18.38;;;12.93;;
27925;SDS011;15267;47.838;12.128;2022-11-03T08:40:43;20.40;;;15.38;;
27925;SDS011;15267;47.838;12.128;2022-11-03T08:43:09;18.25;;;15.20;;
27925;SDS011;15267;47.838;12.128;2022-11-03T08:45:35;17.13;;;13.23;;
27925;SDS011;15267;47.838;12.128;2022-11-03T08:48:01;18.88;;;14.40;;
27925;SDS011;15267;47.838;12.128;2022-11-03T08:50:26;21.20;;;14.35;;
27925;SDS011;15267;47.838;12.128;2022-11-03T08:52:53;17.77;;;13.32;;
27925;SDS011;15267;47.838;12.128;2022-11-03T08:55:18;20.50;;;13.18;;
27925;SDS011;15267;47.838;12.128;2022-11-03T08:57:44;14.75;;;11.25;;
27925;SDS011;15267;47.838;12.128;2022-11-03T09:00:11;21.23;;;13.73;;
27925;SDS011;15267;47.838;12.128;2022-11-03T09:02:37;18.35;;;13.45;;
27925;SDS011;15267;47.838;12.128;2022-11-03T09:05:03;15.68;;;12.57;;
27925;SDS011;15267;47.838;12.128;2022-11-03T09:07:31;16.95;;;13.02;;
27925;SDS011;15267;47.838;12.128;2022-11-03T09:09:57;16.60;;;13.32;;
27925;SDS011;15267;47.838;12.128;2022-11-03T09:12:23;17.92;;;13.13;;
27925;SDS011;15267;47.838;12.128;2022-11-03T09:14:49;17.50;;;12.13;;
27925;SDS011;15267;47.838;12.128;2022-11-03T09:17:15;17.73;;;13.27;;
27925;SDS011;15267;47.838;12.128;2022-11-03T09:19:41;17.70;;;12.90;;
27925;SDS011;15267;47.838;12.128;2022-11-03T09:22:07;17.10;;;12.77;;
27925;SDS011;15267;47.838;12.128;2022-11-03T09:24:33;16.75;;;13.82;;
27925;SDS011;15267;47.838;12.128;2022-11-03T09:26:59;14.32;;;11.85;;
27925;SDS011;15267;47.838;12.128;2022-11-03T09:29:25;18.48;;;12.00;;
27925;SDS011;15267;47.838;12.128;2022-11-03T09:31:51;16.80;;;12.35;;
27925;SDS011;15267;47.838;12.128;2022-11-03T09:34:17;15.80;;;12.27;;
27925;SDS011;15267;47.838;12.128;2022-11-03T09:36:43;14.48;;;11.05;;
27925;SDS011;15267;47.838;12.128;2022-11-03T09:39:09;15.48;;;11.65;;
27925;SDS011;15267;47.838;12.128;2022-11-03T09:41:35;15.35;;;11.10;;
27925;SDS011;15267;47.838;12.128;2022-11-03T09:44:01;14.23;;;11.07;;
27925;SDS011;15267;47.838;12.128;2022-11-03T09:46:27;14.18;;;10.90;;
27925;SDS011;15267;47.838;12.128;2022-11-03T09:48:54;16.02;;;13.10;;
27925;SDS011;15267;47.838;12.128;2022-11-03T09:51:21;18.73;;;13.27;;
27925;SDS011;15267;47.838;12.128;2022-11-03T09:53:47;18.17;;;12.55;;
27925;SDS011;15267;47.838;12.128;2022-11-03T09:56:14;13.80;;;12.40;;
27925;SDS011;15267;47.838;12.128;2022-11-03T09:58:41;14.07;;;10.88;;
27925;SDS011;15267;47.838;12.128;2022-11-03T10:01:08;14.18;;;10.00;;
27925;SDS011;15267;47.838;12.128;2022-11-03T10:03:34;14.93;;;10.45;;
27925;SDS011;15267;47.838;12.128;2022-11-03T10:06:00;13.93;;;12.30;;
27925;SDS011;15267;47.838;12.128;2022-11-03T10:08:27;14.18;;;12.23;;
27925;SDS011;15267;47.838;12.128;2022-11-03T10:10:54;16.42;;;14.73;;
27925;SDS011;15267;47.838;12.128;2022-11-03T10:13:22;13.95;;;12.23;;
27925;SDS011;15267;47.838;12.128;2022-11-03T10:15:49;14.90;;;11.48;;
27925;SDS011;15267;47.838;12.128;2022-11-03T10:18:15;18.38;;;14.05;;
27925;SDS011;15267;47.838;12.128;2022-11-03T10:20:42;11.95;;;10.68;;
27925;SDS011;15267;47.838;12.128;2022-11-03T10:23:08;13.80;;;12.15;;
27925;SDS011;15267;47.838;12.128;2022-11-03T10:25:41;14.10;;;10.43;;
27925;SDS011;15267;47.838;12.128;2022-11-03T10:33:34;12.15;;;9.85;;
27925;SDS011;15267;47.838;12.128;2022-11-03T10:36:02;11.52;;;10.40;;
27925;SDS011;15267;47.838;12.128;2022-11-03T10:41:08;12.65;;;10.98;;
27925;SDS011;15267;47.838;12.128;2022-11-03T10:43:36;23.92;;;16.90;;
27925;SDS011;15267;47.838;12.128;2022-11-03T10:46:19;45.55;;;30.48;;
27925;SDS011;15267;47.838;12.128;2022-11-03T10:49:00;16.92;;;13.50;;
27925;SDS011;15267;47.838;12.128;2022-11-03T10:51:26;12.63;;;9.77;;
27925;SDS011;15267;47.838;12.128;2022-11-03T10:53:53;11.23;;;9.93;;
27925;SDS011;15267;47.838;12.128;2022-11-03T10:56:19;11.57;;;10.18;;
27925;SDS011;15267;47.838;12.128;2022-11-03T10:58:45;12.45;;;10.90;;
27925;SDS011;15267;47.838;12.128;2022-11-03T11:01:11;13.05;;;11.02;;
27925;SDS011;15267;47.838;12.128;2022-11-03T11:03:39;12.02;;;9.45;;
27925;SDS011;15267;47.838;12.128;2022-11-03T11:06:15;12.30;;;9.35;;
27925;SDS011;15267;47.838;12.128;2022-11-03T11:08:42;10.43;;;8.38;;
27925;SDS011;15267;47.838;12.128;2022-11-03T11:11:12;11.75;;;8.70;;
27925;SDS011;15267;47.838;12.128;2022-11-03T11:13:38;9.70;;;8.60;;
27925;SDS011;15267;47.838;12.128;2022-11-03T11:16:06;11.77;;;9.07;;
27925;SDS011;15267;47.838;12.128;2022-11-03T11:23:43;9.18;;;8.20;;
27925;SDS011;15267;47.838;12.128;2022-11-03T11:28:40;8.73;;;7.78;;
27925;SDS011;15267;47.838;12.128;2022-11-03T11:33:48;11.65;;;8.93;;
27925;SDS011;15267;47.838;12.128;2022-11-03T11:36:21;13.38;;;9.73;;
27925;SDS011;15267;47.838;12.128;2022-11-03T11:41:19;10.23;;;8.27;;
27925;SDS011;15267;47.838;12.128;2022-11-03T11:43:45;11.90;;;7.60;;
27925;SDS011;15267;47.838;12.128;2022-11-03T11:51:22;9.90;;;7.45;;
27925;SDS011;15267;47.838;12.128;2022-11-03T11:53:49;10.25;;;8.15;;
27925;SDS011;15267;47.838;12.128;2022-11-03T11:56:15;9.27;;;7.53;;
27925;SDS011;15267;47.838;12.128;2022-11-03T11:58:46;11.27;;;8.40;;
27925;SDS011;15267;47.838;12.128;2022-11-03T12:01:20;9.25;;;7.72;;
27925;SDS011;15267;47.838;12.128;2022-11-03T12:03:47;8.20;;;7.32;;
27925;SDS011;15267;47.838;12.128;2022-11-03T12:06:14;9.57;;;7.18;;
27925;SDS011;15267;47.838;12.128;2022-11-03T12:08:40;8.30;;;7.50;;
27925;SDS011;15267;47.838;12.128;2022-11-03T12:11:08;11.45;;;8.02;;
27925;SDS011;15267;47.838;12.128;2022-11-03T12:13:38;10.85;;;7.85;;
27925;SDS011;15267;47.838;12.128;2022-11-03T12:16:09;9.45;;;7.95;;
27925;SDS011;15267;47.838;12.128;2022-11-03T12:18:39;11.07;;;7.43;;
27925;SDS011;15267;47.838;12.128;2022-11-03T12:21:06;8.93;;;7.40;;
27925;SDS011;15267;47.838;12.128;2022-11-03T12:25:59;9.55;;;8.18;;
27925;SDS011;15267;47.838;12.128;2022-11-03T12:28:32;11.43;;;8.38;;
27925;SDS011;15267;47.838;12.128;2022-11-03T12:30:58;9.53;;;8.00;;
27925;SDS011;15267;47.838;12.128;2022-11-03T12:33:25;8.45;;;7.53;;
27925;SDS011;15267;47.838;12.128;2022-11-03T12:35:51;8.73;;;7.80;;
27925;SDS011;15267;47.838;12.128;2022-11-03T12:38:17;10.52;;;8.48;;
27925;SDS011;15267;47.838;12.128;2022-11-03T12:40:43;8.77;;;7.88;;
27925;SDS011;15267;47.838;12.128;2022-11-03T12:43:09;10.45;;;8.25;;
27925;SDS011;15267;47.838;12.128;2022-11-03T12:45:35;9.55;;;7.88;;
27925;SDS011;15267;47.838;12.128;2022-11-03T12:48:01;9.73;;;7.85;;
27925;SDS011;15267;47.838;12.128;2022-11-03T12:50:28;8.77;;;7.63;;
27925;SDS011;15267;47.838;12.128;2022-11-03T12:52:54;11.65;;;7.60;;
27925;SDS011;15267;47.838;12.128;2022-11-03T12:55:20;9.02;;;7.93;;
27925;SDS011;15267;47.838;12.128;2022-11-03T12:57:47;11.63;;;8.48;;
27925;SDS011;15267;47.838;12.128;2022-11-03T13:00:13;14.60;;;7.97;;
27925;SDS011;15267;47.838;12.128;2022-11-03T13:02:39;12.38;;;7.95;;
27925;SDS011;15267;47.838;12.128;2022-11-03T13:05:05;9.20;;;7.72;;
27925;SDS011;15267;47.838;12.128;2022-11-03T13:07:31;8.63;;;7.13;;
27925;SDS011;15267;47.838;12.128;2022-11-03T13:09:57;10.23;;;7.63;;
27925;SDS011;15267;47.838;12.128;2022-11-03T13:12:23;9.63;;;7.78;;
27925;SDS011;15267;47.838;12.128;2022-11-03T13:14:56;11.50;;;8.18;;
27925;SDS011;15267;47.838;12.128;2022-11-03T13:17:22;11.40;;;7.95;;
27925;SDS011;15267;47.838;12.128;2022-11-03T13:19:48;11.35;;;8.07;;
27925;SDS011;15267;47.838;12.128;2022-11-03T13:22:14;11.73;;;7.85;;
27925;SDS011;15267;47.838;12.128;2022-11-03T13:24:40;13.18;;;8.32;;
27925;SDS011;15267;47.838;12.128;2022-11-03T13:27:06;10.68;;;7.90;;
27925;SDS011;15267;47.838;12.128;2022-11-03T13:29:32;10.45;;;7.45;;
27925;SDS011;15267;47.838;12.128;2022-11-03T13:31:58;11.88;;;8.00;;
27925;SDS011;15267;47.838;12.128;2022-11-03T13:34:24;12.57;;;8.48;;
27925;SDS011;15267;47.838;12.128;2022-11-03T13:36:50;12.93;;;8.30;;
27925;SDS011;15267;47.838;12.128;2022-11-03T13:39:16;9.70;;;7.70;;
27925;SDS011;15267;47.838;12.128;2022-11-03T13:41:42;11.40;;;7.72;;
27925;SDS011;15267;47.838;12.128;2022-11-03T13:44:08;16.40;;;8.50;;
27925;SDS011;15267;47.838;12.128;2022-11-03T13:46:34;12.80;;;8.20;;
27925;SDS011;15267;47.838;12.128;2022-11-03T13:49:00;14.32;;;8.25;;
27925;SDS011;15267;47.838;12.128;2022-11-03T13:51:26;12.00;;;8.50;;
27925;SDS011;15267;47.838;12.128;2022-11-03T13:53:52;17.00;;;9.10;;
27925;SDS011;15267;47.838;12.128;2022-11-03T13:56:18;13.35;;;8.57;;
27925;SDS011;15267;47.838;12.128;2022-11-03T13:58:44;12.10;;;9.10;;
27925;SDS011;15267;47.838;12.128;2022-11-03T14:01:10;16.50;;;8.98;;
27925;SDS011;15267;47.838;12.128;2022-11-03T14:03:36;17.77;;;9.48;;
27925;SDS011;15267;47.838;12.128;2022-11-03T14:06:02;14.85;;;8.60;;
27925;SDS011;15267;47.838;12.128;2022-11-03T14:08:28;14.88;;;8.38;;
27925;SDS011;15267;47.838;12.128;2022-11-03T14:10:54;16.85;;;9.05;;
27925;SDS011;15267;47.838;12.128;2022-11-03T14:13:20;12.38;;;9.18;;
27925;SDS011;15267;47.838;12.128;2022-11-03T14:15:46;12.43;;;9.27;;
27925;SDS011;15267;47.838;12.128;2022-11-03T14:18:12;11.15;;;8.68;;
27925;SDS011;15267;47.838;12.128;2022-11-03T14:20:38;14.65;;;8.93;;
27925;SDS011;15267;47.838;12.128;2022-11-03T14:23:04;14.27;;;9.00;;
27925;SDS011;15267;47.838;12.128;2022-11-03T14:25:30;13.30;;;9.15;;
27925;SDS011;15267;47.838;12.128;2022-11-03T14:27:56;12.15;;;9.52;;
27925;SDS011;15267;47.838;12.128;2022-11-03T14:30:22;13.20;;;9.30;;
27925;SDS011;15267;47.838;12.128;2022-11-03T14:32:48;14.68;;;10.75;;
27925;SDS011;15267;47.838;12.128;2022-11-03T14:35:14;14.95;;;10.20;;
27925;SDS011;15267;47.838;12.128;2022-11-03T14:37:40;16.30;;;9.65;;
27925;SDS011;15267;47.838;12.128;2022-11-03T14:40:06;19.70;;;9.35;;
27925;SDS011;15267;47.838;12.128;2022-11-03T14:42:52;14.15;;;9.23;;
27925;SDS011;15267;47.838;12.128;2022-11-03T14:45:18;12.63;;;9.18;;
27925;SDS011;15267;47.838;12.128;2022-11-03T14:47:44;12.38;;;9.88;;
27925;SDS011;15267;47.838;12.128;2022-11-03T14:50:10;14.13;;;9.88;;
27925;SDS011;15267;47.838;12.128;2022-11-03T14:52:36;13.38;;;9.48;;
27925;SDS011;15267;47.838;12.128;2022-11-03T14:55:02;13.45;;;9.35;;
27925;SDS011;15267;47.838;12.128;2022-11-03T14:57:28;11.68;;;9.57;;
27925;SDS011;15267;47.838;12.128;2022-11-03T14:59:54;13.30;;;9.82;;
27925;SDS011;15267;47.838;12.128;2022-11-03T15:02:20;14.63;;;11.82;;
27925;SDS011;15267;47.838;12.128;2022-11-03T15:04:46;22.70;;;13.27;;
27925;SDS011;15267;47.838;12.128;2022-11-03T15:07:12;22.35;;;15.00;;